sensor_id;sensor_type;location;lat;lon;timestamp;temperature;humidity
66312;HTU21D;53114;51.138;6.008;2023-12-20T00:01:50;8.81;118.99
66312;HTU21D;53114;51.138;6.008;2023-12-20T00:04:16;8.81;118.99
66312;HTU21D;53114;51.138;6.008;2023-12-20T00:06:42;8.79;118.99
66312;HTU21D;53114;51.138;6.008;2023-12-20T00:09:09;8.77;118.99
66312;HTU21D;53114;51.138;6.008;2023-12-20T00:11:35;8.74;118.99
66312;HTU21D;53114;51.138;6.008;2023-12-20T00:14:00;8.70;118.99
66312;HTU21D;53114;51.138;6.008;2023-12-20T00:16:26;8.64;118.99
66312;HTU21D;53114;51.138;6.008;2023-12-20T00:18:52;8.63;118.99
66312;HTU21D;53114;51.138;6.008;2023-12-20T00:21:18;8.61;118.99
66312;HTU21D;53114;51.138;6.008;2023-12-20T00:23:44;8.56;118.99
66312;HTU21D;53114;51.138;6.008;2023-12-20T00:26:10;8.55;118.99
66312;HTU21D;53114;51.138;6.008;2023-12-20T00:28:36;8.52;118.99
66312;HTU21D;53114;51.138;6.008;2023-12-20T00:31:02;8.47;118.99
66312;HTU21D;53114;51.138;6.008;2023-12-20T00:33:28;8.44;118.99
66312;HTU21D;53114;51.138;6.008;2023-12-20T00:35:53;8.43;118.99
66312;HTU21D;53114;51.138;6.008;2023-12-20T00:38:19;8.44;118.99
66312;HTU21D;53114;51.138;6.008;2023-12-20T00:40:45;8.42;118.99
66312;HTU21D;53114;51.138;6.008;2023-12-20T00:43:11;8.31;118.99
66312;HTU21D;53114;51.138;6.008;2023-12-20T00:45:37;8.22;118.99
66312;HTU21D;53114;51.138;6.008;2023-12-20T00:48:03;8.13;118.99
66312;HTU21D;53114;51.138;6.008;2023-12-20T00:50:29;7.97;118.99
66312;HTU21D;53114;51.138;6.008;2023-12-20T00:52:55;7.83;118.99
66312;HTU21D;53114;51.138;6.008;2023-12-20T00:55:21;7.70;118.99
66312;HTU21D;53114;51.138;6.008;2023-12-20T00:57:47;7.63;118.99
66312;HTU21D;53114;51.138;6.008;2023-12-20T01:00:13;7.63;118.99
66312;HTU21D;53114;51.138;6.008;2023-12-20T01:02:39;7.61;118.99
66312;HTU21D;53114;51.138;6.008;2023-12-20T01:05:06;7.57;118.99
66312;HTU21D;53114;51.138;6.008;2023-12-20T01:07:33;7.55;118.99
66312;HTU21D;53114;51.138;6.008;2023-12-20T01:09:59;7.52;118.99
66312;HTU21D;53114;51.138;6.008;2023-12-20T01:12:25;7.46;118.99
66312;HTU21D;53114;51.138;6.008;2023-12-20T01:14:51;7.38;118.99
66312;HTU21D;53114;51.138;6.008;2023-12-20T01:17:17;7.32;118.99
66312;HTU21D;53114;51.138;6.008;2023-12-20T01:19:43;7.26;118.99
66312;HTU21D;53114;51.138;6.008;2023-12-20T01:22:09;7.20;118.99
66312;HTU21D;53114;51.138;6.008;2023-12-20T01:24:34;7.16;118.99
66312;HTU21D;53114;51.138;6.008;2023-12-20T01:27:00;7.14;118.99
66312;HTU21D;53114;51.138;6.008;2023-12-20T01:29:26;7.14;118.99
66312;HTU21D;53114;51.138;6.008;2023-12-20T01:31:52;7.12;118.99
66312;HTU21D;53114;51.138;6.008;2023-12-20T01:34:18;7.10;118.99
66312;HTU21D;53114;51.138;6.008;2023-12-20T01:36:44;7.12;118.99
66312;HTU21D;53114;51.138;6.008;2023-12-20T01:39:10;7.12;118.99
66312;HTU21D;53114;51.138;6.008;2023-12-20T01:41:35;7.07;118.99
66312;HTU21D;53114;51.138;6.008;2023-12-20T01:44:01;6.98;118.99
66312;HTU21D;53114;51.138;6.008;2023-12-20T01:46:27;6.94;118.99
66312;HTU21D;53114;51.138;6.008;2023-12-20T01:48:53;6.91;118.99
66312;HTU21D;53114;51.138;6.008;2023-12-20T01:51:20;6.95;118.99
66312;HTU21D;53114;51.138;6.008;2023-12-20T01:53:47;6.99;118.99
66312;HTU21D;53114;51.138;6.008;2023-12-20T01:56:15;6.95;118.99
66312;HTU21D;53114;51.138;6.008;2023-12-20T01:58:44;6.90;118.99
66312;HTU21D;53114;51.138;6.008;2023-12-20T02:01:12;6.85;118.99
66312;HTU21D;53114;51.138;6.008;2023-12-20T02:03:41;6.80;118.99
66312;HTU21D;53114;51.138;6.008;2023-12-20T02:06:08;6.74;118.99
66312;HTU21D;53114;51.138;6.008;2023-12-20T02:08:34;6.72;118.99
66312;HTU21D;53114;51.138;6.008;2023-12-20T02:11:00;6.70;118.99
66312;HTU21D;53114;51.138;6.008;2023-12-20T02:13:27;6.69;118.99
66312;HTU21D;53114;51.138;6.008;2023-12-20T02:15:54;6.69;118.99
66312;HTU21D;53114;51.138;6.008;2023-12-20T02:18:20;6.67;118.99
66312;HTU21D;53114;51.138;6.008;2023-12-20T02:20:46;6.71;118.99
66312;HTU21D;53114;51.138;6.008;2023-12-20T02:23:12;6.76;118.99
66312;HTU21D;53114;51.138;6.008;2023-12-20T02:25:38;6.80;118.99
66312;HTU21D;53114;51.138;6.008;2023-12-20T02:28:05;6.78;118.99
66312;HTU21D;53114;51.138;6.008;2023-12-20T02:30:31;6.73;118.99
66312;HTU21D;53114;51.138;6.008;2023-12-20T02:32:59;6.68;118.99
66312;HTU21D;53114;51.138;6.008;2023-12-20T02:35:25;6.64;118.99
66312;HTU21D;53114;51.138;6.008;2023-12-20T02:37:51;6.65;118.99
66312;HTU21D;53114;51.138;6.008;2023-12-20T02:40:17;6.64;118.99
66312;HTU21D;53114;51.138;6.008;2023-12-20T02:42:43;6.68;118.99
66312;HTU21D;53114;51.138;6.008;2023-12-20T02:45:09;6.74;118.99
66312;HTU21D;53114;51.138;6.008;2023-12-20T02:47:35;6.79;118.99
66312;HTU21D;53114;51.138;6.008;2023-12-20T02:50:00;6.81;118.99
66312;HTU21D;53114;51.138;6.008;2023-12-20T02:52:27;6.81;118.99
66312;HTU21D;53114;51.138;6.008;2023-12-20T02:54:53;6.81;118.99
66312;HTU21D;53114;51.138;6.008;2023-12-20T02:57:19;6.84;118.99
66312;HTU21D;53114;51.138;6.008;2023-12-20T02:59:45;6.87;118.99
66312;HTU21D;53114;51.138;6.008;2023-12-20T03:02:11;6.85;118.99
66312;HTU21D;53114;51.138;6.008;2023-12-20T03:04:37;6.81;118.99
66312;HTU21D;53114;51.138;6.008;2023-12-20T03:07:02;6.79;118.99
66312;HTU21D;53114;51.138;6.008;2023-12-20T03:09:28;6.79;118.99
66312;HTU21D;53114;51.138;6.008;2023-12-20T03:11:54;6.72;118.99
66312;HTU21D;53114;51.138;6.008;2023-12-20T03:14:20;6.68;118.99
66312;HTU21D;53114;51.138;6.008;2023-12-20T03:16:50;6.60;118.99
66312;HTU21D;53114;51.138;6.008;2023-12-20T03:19:16;6.55;118.99
66312;HTU21D;53114;51.138;6.008;2023-12-20T03:21:42;6.50;118.99
66312;HTU21D;53114;51.138;6.008;2023-12-20T03:24:08;6.43;118.99
66312;HTU21D;53114;51.138;6.008;2023-12-20T03:26:34;6.40;118.99
66312;HTU21D;53114;51.138;6.008;2023-12-20T03:29:00;6.37;118.99
66312;HTU21D;53114;51.138;6.008;2023-12-20T03:31:26;6.37;118.99
66312;HTU21D;53114;51.138;6.008;2023-12-20T03:33:52;6.38;118.99
66312;HTU21D;53114;51.138;6.008;2023-12-20T03:36:19;6.38;118.99
66312;HTU21D;53114;51.138;6.008;2023-12-20T03:38:45;6.44;118.99
66312;HTU21D;53114;51.138;6.008;2023-12-20T03:41:11;6.46;118.99
66312;HTU21D;53114;51.138;6.008;2023-12-20T03:43:37;6.48;118.99
66312;HTU21D;53114;51.138;6.008;2023-12-20T03:46:03;6.46;118.99
66312;HTU21D;53114;51.138;6.008;2023-12-20T03:48:30;6.45;118.99
66312;HTU21D;53114;51.138;6.008;2023-12-20T03:50:57;6.48;118.99
66312;HTU21D;53114;51.138;6.008;2023-12-20T03:53:22;6.46;118.99
66312;HTU21D;53114;51.138;6.008;2023-12-20T03:55:48;6.42;118.99
66312;HTU21D;53114;51.138;6.008;2023-12-20T03:58:14;6.39;118.99
66312;HTU21D;53114;51.138;6.008;2023-12-20T04:00:40;6.36;118.99
66312;HTU21D;53114;51.138;6.008;2023-12-20T04:03:07;6.31;118.99
66312;HTU21D;53114;51.138;6.008;2023-12-20T04:05:33;6.30;118.99
66312;HTU21D;53114;51.138;6.008;2023-12-20T04:08:01;6.27;118.99
66312;HTU21D;53114;51.138;6.008;2023-12-20T04:10:27;6.23;118.99
66312;HTU21D;53114;51.138;6.008;2023-12-20T04:12:53;6.16;118.99
66312;HTU21D;53114;51.138;6.008;2023-12-20T04:15:20;6.14;118.99
66312;HTU21D;53114;51.138;6.008;2023-12-20T04:17:46;6.15;118.99
66312;HTU21D;53114;51.138;6.008;2023-12-20T04:20:12;6.21;118.99
66312;HTU21D;53114;51.138;6.008;2023-12-20T04:22:38;6.22;118.99
66312;HTU21D;53114;51.138;6.008;2023-12-20T04:25:04;6.26;118.99
66312;HTU21D;53114;51.138;6.008;2023-12-20T04:27:30;6.30;118.99
66312;HTU21D;53114;51.138;6.008;2023-12-20T04:29:56;6.35;118.99
66312;HTU21D;53114;51.138;6.008;2023-12-20T04:32:22;6.34;118.99
66312;HTU21D;53114;51.138;6.008;2023-12-20T04:34:48;6.31;118.99
66312;HTU21D;53114;51.138;6.008;2023-12-20T04:37:14;6.34;118.99
66312;HTU21D;53114;51.138;6.008;2023-12-20T04:39:40;6.35;118.99
66312;HTU21D;53114;51.138;6.008;2023-12-20T04:42:07;6.42;118.99
66312;HTU21D;53114;51.138;6.008;2023-12-20T04:44:33;6.48;118.99
66312;HTU21D;53114;51.138;6.008;2023-12-20T04:46:59;6.48;118.99
66312;HTU21D;53114;51.138;6.008;2023-12-20T04:49:25;6.53;118.99
66312;HTU21D;53114;51.138;6.008;2023-12-20T04:51:51;6.58;118.99
66312;HTU21D;53114;51.138;6.008;2023-12-20T04:54:17;6.61;118.99
66312;HTU21D;53114;51.138;6.008;2023-12-20T04:56:43;6.65;118.99
66312;HTU21D;53114;51.138;6.008;2023-12-20T04:59:09;6.67;118.99
66312;HTU21D;53114;51.138;6.008;2023-12-20T05:01:34;6.67;118.99
66312;HTU21D;53114;51.138;6.008;2023-12-20T05:04:00;6.69;118.99
66312;HTU21D;53114;51.138;6.008;2023-12-20T05:06:26;6.72;118.99
66312;HTU21D;53114;51.138;6.008;2023-12-20T05:08:52;6.73;118.99
66312;HTU21D;53114;51.138;6.008;2023-12-20T05:11:18;6.71;118.99
66312;HTU21D;53114;51.138;6.008;2023-12-20T05:13:44;6.73;118.99
66312;HTU21D;53114;51.138;6.008;2023-12-20T05:16:09;6.73;118.99
66312;HTU21D;53114;51.138;6.008;2023-12-20T05:18:36;6.72;118.99
66312;HTU21D;53114;51.138;6.008;2023-12-20T05:21:02;6.75;118.99
66312;HTU21D;53114;51.138;6.008;2023-12-20T05:23:28;6.79;118.99
66312;HTU21D;53114;51.138;6.008;2023-12-20T05:25:53;6.79;118.99
66312;HTU21D;53114;51.138;6.008;2023-12-20T05:28:19;6.81;118.99
66312;HTU21D;53114;51.138;6.008;2023-12-20T05:30:45;6.79;118.99
66312;HTU21D;53114;51.138;6.008;2023-12-20T05:33:11;6.79;118.99
66312;HTU21D;53114;51.138;6.008;2023-12-20T05:35:37;6.81;118.99
66312;HTU21D;53114;51.138;6.008;2023-12-20T05:38:03;6.82;118.99
66312;HTU21D;53114;51.138;6.008;2023-12-20T05:40:29;6.85;118.99
66312;HTU21D;53114;51.138;6.008;2023-12-20T05:42:54;6.88;118.99
66312;HTU21D;53114;51.138;6.008;2023-12-20T05:45:20;6.87;118.99
66312;HTU21D;53114;51.138;6.008;2023-12-20T05:47:46;6.88;118.99
66312;HTU21D;53114;51.138;6.008;2023-12-20T05:50:12;6.89;118.99
66312;HTU21D;53114;51.138;6.008;2023-12-20T05:52:38;6.88;118.99
66312;HTU21D;53114;51.138;6.008;2023-12-20T05:55:04;6.87;118.99
66312;HTU21D;53114;51.138;6.008;2023-12-20T05:57:30;6.87;118.99
66312;HTU21D;53114;51.138;6.008;2023-12-20T05:59:56;6.86;118.99
66312;HTU21D;53114;51.138;6.008;2023-12-20T06:02:22;6.88;118.99
66312;HTU21D;53114;51.138;6.008;2023-12-20T06:04:48;6.90;118.99
66312;HTU21D;53114;51.138;6.008;2023-12-20T06:07:14;6.87;118.99
66312;HTU21D;53114;51.138;6.008;2023-12-20T06:09:41;6.89;118.99
66312;HTU21D;53114;51.138;6.008;2023-12-20T06:12:07;6.88;118.99
66312;HTU21D;53114;51.138;6.008;2023-12-20T06:14:34;6.91;118.99
66312;HTU21D;53114;51.138;6.008;2023-12-20T06:17:00;6.91;118.99
66312;HTU21D;53114;51.138;6.008;2023-12-20T06:19:27;6.90;118.99
66312;HTU21D;53114;51.138;6.008;2023-12-20T06:21:53;6.95;118.99
66312;HTU21D;53114;51.138;6.008;2023-12-20T06:24:19;6.98;118.99
66312;HTU21D;53114;51.138;6.008;2023-12-20T06:26:45;7.01;118.99
66312;HTU21D;53114;51.138;6.008;2023-12-20T06:29:11;7.00;118.99
66312;HTU21D;53114;51.138;6.008;2023-12-20T06:31:37;7.02;118.99
66312;HTU21D;53114;51.138;6.008;2023-12-20T06:34:03;7.01;118.99
66312;HTU21D;53114;51.138;6.008;2023-12-20T06:36:29;7.01;118.99
66312;HTU21D;53114;51.138;6.008;2023-12-20T06:38:55;6.97;118.99
66312;HTU21D;53114;51.138;6.008;2023-12-20T06:41:21;6.90;118.99
66312;HTU21D;53114;51.138;6.008;2023-12-20T06:43:47;6.81;118.99
66312;HTU21D;53114;51.138;6.008;2023-12-20T06:46:12;6.74;118.99
66312;HTU21D;53114;51.138;6.008;2023-12-20T06:48:39;6.68;118.99
66312;HTU21D;53114;51.138;6.008;2023-12-20T06:51:06;6.70;118.99
66312;HTU21D;53114;51.138;6.008;2023-12-20T06:53:32;6.72;118.99
66312;HTU21D;53114;51.138;6.008;2023-12-20T06:55:57;6.72;118.99
66312;HTU21D;53114;51.138;6.008;2023-12-20T06:58:24;6.69;118.99
66312;HTU21D;53114;51.138;6.008;2023-12-20T07:00:50;6.65;118.99
66312;HTU21D;53114;51.138;6.008;2023-12-20T07:03:17;6.63;118.99
66312;HTU21D;53114;51.138;6.008;2023-12-20T07:05:43;6.57;118.99
66312;HTU21D;53114;51.138;6.008;2023-12-20T07:08:09;6.53;118.99
66312;HTU21D;53114;51.138;6.008;2023-12-20T07:10:36;6.53;118.99
66312;HTU21D;53114;51.138;6.008;2023-12-20T07:13:02;6.50;118.99
66312;HTU21D;53114;51.138;6.008;2023-12-20T07:15:28;6.45;118.99
66312;HTU21D;53114;51.138;6.008;2023-12-20T07:17:55;6.41;118.99
66312;HTU21D;53114;51.138;6.008;2023-12-20T07:20:21;6.33;118.99
66312;HTU21D;53114;51.138;6.008;2023-12-20T07:22:47;6.33;118.99
66312;HTU21D;53114;51.138;6.008;2023-12-20T07:25:12;6.33;118.99
66312;HTU21D;53114;51.138;6.008;2023-12-20T07:27:39;6.28;118.99
66312;HTU21D;53114;51.138;6.008;2023-12-20T07:30:05;6.28;118.99
66312;HTU21D;53114;51.138;6.008;2023-12-20T07:32:31;6.26;118.99
66312;HTU21D;53114;51.138;6.008;2023-12-20T07:34:57;6.22;118.99
66312;HTU21D;53114;51.138;6.008;2023-12-20T07:37:23;6.21;118.99
66312;HTU21D;53114;51.138;6.008;2023-12-20T07:39:49;6.19;118.99
66312;HTU21D;53114;51.138;6.008;2023-12-20T07:42:15;6.21;118.99
66312;HTU21D;53114;51.138;6.008;2023-12-20T07:44:41;6.23;118.99
66312;HTU21D;53114;51.138;6.008;2023-12-20T07:47:07;6.29;118.99
66312;HTU21D;53114;51.138;6.008;2023-12-20T07:49:33;6.39;118.99
66312;HTU21D;53114;51.138;6.008;2023-12-20T07:51:59;6.43;118.99
66312;HTU21D;53114;51.138;6.008;2023-12-20T07:54:25;6.43;118.99
66312;HTU21D;53114;51.138;6.008;2023-12-20T07:56:51;6.39;118.99
66312;HTU21D;53114;51.138;6.008;2023-12-20T07:59:17;6.34;118.99
66312;HTU21D;53114;51.138;6.008;2023-12-20T08:01:43;6.31;118.99
66312;HTU21D;53114;51.138;6.008;2023-12-20T08:04:08;6.27;118.99
66312;HTU21D;53114;51.138;6.008;2023-12-20T08:06:34;6.27;118.99
66312;HTU21D;53114;51.138;6.008;2023-12-20T08:09:00;6.27;118.99
66312;HTU21D;53114;51.138;6.008;2023-12-20T08:11:26;6.25;118.99
66312;HTU21D;53114;51.138;6.008;2023-12-20T08:13:53;6.26;118.99
66312;HTU21D;53114;51.138;6.008;2023-12-20T08:16:18;6.28;118.99
66312;HTU21D;53114;51.138;6.008;2023-12-20T08:18:45;6.29;118.99
66312;HTU21D;53114;51.138;6.008;2023-12-20T08:21:11;6.34;118.99
66312;HTU21D;53114;51.138;6.008;2023-12-20T08:23:37;6.38;118.99
66312;HTU21D;53114;51.138;6.008;2023-12-20T08:26:07;6.46;118.99
66312;HTU21D;53114;51.138;6.008;2023-12-20T08:28:34;6.56;118.99
66312;HTU21D;53114;51.138;6.008;2023-12-20T08:31:00;6.72;118.99
66312;HTU21D;53114;51.138;6.008;2023-12-20T08:33:26;6.81;118.99
66312;HTU21D;53114;51.138;6.008;2023-12-20T08:35:52;6.87;118.99
66312;HTU21D;53114;51.138;6.008;2023-12-20T08:38:18;6.91;118.99
66312;HTU21D;53114;51.138;6.008;2023-12-20T08:40:44;6.94;118.99
66312;HTU21D;53114;51.138;6.008;2023-12-20T08:43:10;6.96;118.99
66312;HTU21D;53114;51.138;6.008;2023-12-20T08:45:37;6.98;118.99
66312;HTU21D;53114;51.138;6.008;2023-12-20T08:48:04;6.95;118.99
66312;HTU21D;53114;51.138;6.008;2023-12-20T08:50:31;6.95;118.99
66312;HTU21D;53114;51.138;6.008;2023-12-20T08:52:56;6.96;118.99
66312;HTU21D;53114;51.138;6.008;2023-12-20T08:55:22;7.00;118.99
66312;HTU21D;53114;51.138;6.008;2023-12-20T08:57:48;6.97;118.99
66312;HTU21D;53114;51.138;6.008;2023-12-20T09:00:15;7.01;118.99
66312;HTU21D;53114;51.138;6.008;2023-12-20T09:02:41;7.03;118.99
66312;HTU21D;53114;51.138;6.008;2023-12-20T09:05:07;7.04;118.99
66312;HTU21D;53114;51.138;6.008;2023-12-20T09:07:34;7.05;118.99
66312;HTU21D;53114;51.138;6.008;2023-12-20T09:10:00;7.11;118.99
66312;HTU21D;53114;51.138;6.008;2023-12-20T09:12:26;7.16;118.99
66312;HTU21D;53114;51.138;6.008;2023-12-20T09:14:53;7.19;118.99
66312;HTU21D;53114;51.138;6.008;2023-12-20T09:17:19;7.20;118.99
66312;HTU21D;53114;51.138;6.008;2023-12-20T09:19:46;7.26;118.99
66312;HTU21D;53114;51.138;6.008;2023-12-20T09:22:12;7.34;118.99
66312;HTU21D;53114;51.138;6.008;2023-12-20T09:24:38;7.45;118.99
66312;HTU21D;53114;51.138;6.008;2023-12-20T09:27:05;7.56;118.99
66312;HTU21D;53114;51.138;6.008;2023-12-20T09:29:31;7.47;118.99
66312;HTU21D;53114;51.138;6.008;2023-12-20T09:31:58;7.44;118.99
66312;HTU21D;53114;51.138;6.008;2023-12-20T09:34:24;7.59;118.99
66312;HTU21D;53114;51.138;6.008;2023-12-20T09:36:51;7.68;118.99
66312;HTU21D;53114;51.138;6.008;2023-12-20T09:39:18;7.71;118.99
66312;HTU21D;53114;51.138;6.008;2023-12-20T09:41:56;7.74;118.99
66312;HTU21D;53114;51.138;6.008;2023-12-20T09:44:25;7.85;118.99
66312;HTU21D;53114;51.138;6.008;2023-12-20T09:46:52;7.91;118.99
66312;HTU21D;53114;51.138;6.008;2023-12-20T09:49:21;7.97;118.99
66312;HTU21D;53114;51.138;6.008;2023-12-20T09:51:47;7.88;118.99
66312;HTU21D;53114;51.138;6.008;2023-12-20T09:54:17;7.83;118.99
66312;HTU21D;53114;51.138;6.008;2023-12-20T09:56:47;7.78;118.99
66312;HTU21D;53114;51.138;6.008;2023-12-20T09:59:13;7.77;118.99
66312;HTU21D;53114;51.138;6.008;2023-12-20T10:01:40;7.75;118.99
66312;HTU21D;53114;51.138;6.008;2023-12-20T10:04:08;7.77;118.99
66312;HTU21D;53114;51.138;6.008;2023-12-20T10:06:36;7.78;118.99
66312;HTU21D;53114;51.138;6.008;2023-12-20T10:09:02;7.82;118.99
66312;HTU21D;53114;51.138;6.008;2023-12-20T10:11:29;7.97;118.99
66312;HTU21D;53114;51.138;6.008;2023-12-20T10:13:59;8.02;118.99
66312;HTU21D;53114;51.138;6.008;2023-12-20T10:16:27;8.06;118.99
66312;HTU21D;53114;51.138;6.008;2023-12-20T10:18:54;8.05;118.99
66312;HTU21D;53114;51.138;6.008;2023-12-20T10:21:21;7.98;118.99
66312;HTU21D;53114;51.138;6.008;2023-12-20T10:23:49;7.97;118.99
66312;HTU21D;53114;51.138;6.008;2023-12-20T10:26:26;7.98;118.99
66312;HTU21D;53114;51.138;6.008;2023-12-20T10:29:10;8.01;118.99
66312;HTU21D;53114;51.138;6.008;2023-12-20T10:31:36;8.02;118.99
66312;HTU21D;53114;51.138;6.008;2023-12-20T10:34:04;8.04;118.99
66312;HTU21D;53114;51.138;6.008;2023-12-20T10:36:32;8.11;118.99
66312;HTU21D;53114;51.138;6.008;2023-12-20T10:38:58;8.17;118.99
66312;HTU21D;53114;51.138;6.008;2023-12-20T10:41:29;8.21;118.99
66312;HTU21D;53114;51.138;6.008;2023-12-20T10:44:03;8.28;118.99
66312;HTU21D;53114;51.138;6.008;2023-12-20T10:46:31;8.33;118.68
66312;HTU21D;53114;51.138;6.008;2023-12-20T10:49:03;8.36;118.99
66312;HTU21D;53114;51.138;6.008;2023-12-20T10:51:31;8.38;118.99
66312;HTU21D;53114;51.138;6.008;2023-12-20T10:53:57;8.41;118.99
66312;HTU21D;53114;51.138;6.008;2023-12-20T10:56:23;8.42;118.99
66312;HTU21D;53114;51.138;6.008;2023-12-20T10:58:49;8.39;118.99
66312;HTU21D;53114;51.138;6.008;2023-12-20T11:01:17;8.34;118.99
66312;HTU21D;53114;51.138;6.008;2023-12-20T11:03:51;8.26;118.71
66312;HTU21D;53114;51.138;6.008;2023-12-20T11:06:46;8.22;118.99
66312;HTU21D;53114;51.138;6.008;2023-12-20T11:09:31;8.20;118.99
66312;HTU21D;53114;51.138;6.008;2023-12-20T11:12:18;8.18;118.99
66312;HTU21D;53114;51.138;6.008;2023-12-20T11:14:52;8.16;118.99
66312;HTU21D;53114;51.138;6.008;2023-12-20T11:17:19;8.07;118.99
66312;HTU21D;53114;51.138;6.008;2023-12-20T11:22:31;8.01;118.99
66312;HTU21D;53114;51.138;6.008;2023-12-20T11:25:10;8.05;118.99
66312;HTU21D;53114;51.138;6.008;2023-12-20T11:27:40;8.06;118.99
66312;HTU21D;53114;51.138;6.008;2023-12-20T11:30:06;8.11;118.99
66312;HTU21D;53114;51.138;6.008;2023-12-20T11:32:35;8.12;118.99
66312;HTU21D;53114;51.138;6.008;2023-12-20T11:37:38;8.19;118.99
66312;HTU21D;53114;51.138;6.008;2023-12-20T11:40:07;8.19;118.99
66312;HTU21D;53114;51.138;6.008;2023-12-20T11:42:39;8.16;118.99
66312;HTU21D;53114;51.138;6.008;2023-12-20T11:45:08;8.19;118.99
66312;HTU21D;53114;51.138;6.008;2023-12-20T11:47:34;8.19;118.99
66312;HTU21D;53114;51.138;6.008;2023-12-20T11:50:00;8.20;118.99
66312;HTU21D;53114;51.138;6.008;2023-12-20T11:52:29;8.22;118.99
66312;HTU21D;53114;51.138;6.008;2023-12-20T11:54:57;8.17;118.99
66312;HTU21D;53114;51.138;6.008;2023-12-20T11:57:23;8.15;118.99
66312;HTU21D;53114;51.138;6.008;2023-12-20T11:59:49;8.13;118.99
66312;HTU21D;53114;51.138;6.008;2023-12-20T12:02:15;8.17;118.99
66312;HTU21D;53114;51.138;6.008;2023-12-20T12:04:41;8.18;118.99
66312;HTU21D;53114;51.138;6.008;2023-12-20T12:07:07;8.19;118.99
66312;HTU21D;53114;51.138;6.008;2023-12-20T12:09:34;8.19;118.99
66312;HTU21D;53114;51.138;6.008;2023-12-20T12:12:01;8.19;118.99
66312;HTU21D;53114;51.138;6.008;2023-12-20T12:14:27;8.21;118.99
66312;HTU21D;53114;51.138;6.008;2023-12-20T12:16:53;8.26;118.99
66312;HTU21D;53114;51.138;6.008;2023-12-20T12:19:24;8.23;118.99
66312;HTU21D;53114;51.138;6.008;2023-12-20T12:21:51;8.22;118.99
66312;HTU21D;53114;51.138;6.008;2023-12-20T12:24:20;8.28;118.99
66312;HTU21D;53114;51.138;6.008;2023-12-20T12:26:52;8.29;118.99
66312;HTU21D;53114;51.138;6.008;2023-12-20T12:29:18;8.33;118.99
66312;HTU21D;53114;51.138;6.008;2023-12-20T12:31:44;8.39;118.99
66312;HTU21D;53114;51.138;6.008;2023-12-20T12:34:10;8.47;118.99
66312;HTU21D;53114;51.138;6.008;2023-12-20T12:36:36;8.46;118.99
66312;HTU21D;53114;51.138;6.008;2023-12-20T12:39:03;8.37;118.99
66312;HTU21D;53114;51.138;6.008;2023-12-20T12:41:31;8.37;118.99
66312;HTU21D;53114;51.138;6.008;2023-12-20T12:43:57;8.39;118.99
66312;HTU21D;53114;51.138;6.008;2023-12-20T12:46:23;8.42;118.99
66312;HTU21D;53114;51.138;6.008;2023-12-20T12:48:49;8.41;118.99
66312;HTU21D;53114;51.138;6.008;2023-12-20T12:51:16;8.43;118.99
66312;HTU21D;53114;51.138;6.008;2023-12-20T12:53:41;8.46;118.99
66312;HTU21D;53114;51.138;6.008;2023-12-20T12:56:08;8.50;118.99
66312;HTU21D;53114;51.138;6.008;2023-12-20T12:58:34;8.47;118.99
66312;HTU21D;53114;51.138;6.008;2023-12-20T13:01:00;8.43;118.99
66312;HTU21D;53114;51.138;6.008;2023-12-20T13:03:25;8.36;118.99
66312;HTU21D;53114;51.138;6.008;2023-12-20T13:05:51;8.36;118.99
66312;HTU21D;53114;51.138;6.008;2023-12-20T13:08:17;8.37;118.99
66312;HTU21D;53114;51.138;6.008;2023-12-20T13:10:43;8.33;118.99
66312;HTU21D;53114;51.138;6.008;2023-12-20T13:13:09;8.31;118.99
66312;HTU21D;53114;51.138;6.008;2023-12-20T13:15:35;8.29;118.99
66312;HTU21D;53114;51.138;6.008;2023-12-20T13:18:01;8.31;118.99
66312;HTU21D;53114;51.138;6.008;2023-12-20T13:20:27;8.22;118.99
66312;HTU21D;53114;51.138;6.008;2023-12-20T13:22:53;8.23;118.99
66312;HTU21D;53114;51.138;6.008;2023-12-20T13:25:19;8.27;118.99
66312;HTU21D;53114;51.138;6.008;2023-12-20T13:27:44;8.30;118.99
66312;HTU21D;53114;51.138;6.008;2023-12-20T13:30:11;8.31;118.99
66312;HTU21D;53114;51.138;6.008;2023-12-20T13:32:37;8.32;118.99
66312;HTU21D;53114;51.138;6.008;2023-12-20T13:35:03;8.31;118.99
66312;HTU21D;53114;51.138;6.008;2023-12-20T13:37:30;8.36;118.99
66312;HTU21D;53114;51.138;6.008;2023-12-20T13:39:56;8.45;118.99
66312;HTU21D;53114;51.138;6.008;2023-12-20T13:42:22;8.50;118.99
66312;HTU21D;53114;51.138;6.008;2023-12-20T13:44:47;8.52;118.99
66312;HTU21D;53114;51.138;6.008;2023-12-20T13:47:13;8.56;118.99
66312;HTU21D;53114;51.138;6.008;2023-12-20T13:49:39;8.58;118.99
66312;HTU21D;53114;51.138;6.008;2023-12-20T13:52:05;8.58;118.99
66312;HTU21D;53114;51.138;6.008;2023-12-20T13:54:31;8.61;118.99
66312;HTU21D;53114;51.138;6.008;2023-12-20T13:56:57;8.61;118.99
66312;HTU21D;53114;51.138;6.008;2023-12-20T13:59:23;8.59;118.99
66312;HTU21D;53114;51.138;6.008;2023-12-20T14:01:49;8.59;118.99
66312;HTU21D;53114;51.138;6.008;2023-12-20T14:04:16;8.59;118.99
66312;HTU21D;53114;51.138;6.008;2023-12-20T14:06:41;8.64;118.99
66312;HTU21D;53114;51.138;6.008;2023-12-20T14:09:08;8.71;118.99
66312;HTU21D;53114;51.138;6.008;2023-12-20T14:11:34;8.70;118.99
66312;HTU21D;53114;51.138;6.008;2023-12-20T14:14:00;8.71;118.99
66312;HTU21D;53114;51.138;6.008;2023-12-20T14:16:27;8.67;118.99
66312;HTU21D;53114;51.138;6.008;2023-12-20T14:18:53;8.65;118.99
66312;HTU21D;53114;51.138;6.008;2023-12-20T14:21:22;8.61;118.99
66312;HTU21D;53114;51.138;6.008;2023-12-20T14:23:49;8.63;118.99
66312;HTU21D;53114;51.138;6.008;2023-12-20T14:26:15;8.61;118.99
66312;HTU21D;53114;51.138;6.008;2023-12-20T14:28:41;8.61;118.99
66312;HTU21D;53114;51.138;6.008;2023-12-20T14:31:07;8.61;118.99
66312;HTU21D;53114;51.138;6.008;2023-12-20T14:33:34;8.62;118.99
66312;HTU21D;53114;51.138;6.008;2023-12-20T14:36:00;8.62;118.99
66312;HTU21D;53114;51.138;6.008;2023-12-20T14:38:26;8.61;118.99
66312;HTU21D;53114;51.138;6.008;2023-12-20T14:40:53;8.63;118.99
66312;HTU21D;53114;51.138;6.008;2023-12-20T14:43:19;8.60;118.99
66312;HTU21D;53114;51.138;6.008;2023-12-20T14:45:45;8.63;118.99
66312;HTU21D;53114;51.138;6.008;2023-12-20T14:48:11;8.65;118.99
66312;HTU21D;53114;51.138;6.008;2023-12-20T14:50:37;8.66;118.99
66312;HTU21D;53114;51.138;6.008;2023-12-20T14:53:03;8.61;118.99
66312;HTU21D;53114;51.138;6.008;2023-12-20T14:55:29;8.57;118.99
66312;HTU21D;53114;51.138;6.008;2023-12-20T14:57:55;8.58;118.99
66312;HTU21D;53114;51.138;6.008;2023-12-20T15:00:21;8.57;118.99
66312;HTU21D;53114;51.138;6.008;2023-12-20T15:02:47;8.59;118.99
66312;HTU21D;53114;51.138;6.008;2023-12-20T15:05:13;8.59;118.99
66312;HTU21D;53114;51.138;6.008;2023-12-20T15:07:39;8.60;118.99
66312;HTU21D;53114;51.138;6.008;2023-12-20T15:10:06;8.56;118.99
66312;HTU21D;53114;51.138;6.008;2023-12-20T15:12:32;8.57;118.99
66312;HTU21D;53114;51.138;6.008;2023-12-20T15:14:59;8.58;118.99
66312;HTU21D;53114;51.138;6.008;2023-12-20T15:17:25;8.59;118.99